Time;durP1;ratioP1;P1;durP2;ratioP2;P2;SDS_P1;SDS_P2;PMS_P1;PMS_P2;Temp;Humidity;BMP_temperature;BMP_pressure;BME280_temperature;BME280_humidity;BME280_pressure;Samples;Min_cycle;Max_cycle;Signal;HPM_P1;HPM_P2
2023/06/29 00:01:14;;;;;;;6.60;5.90;;;;;;;18.41;81.40;98236.50;4137890;28;20701;-81
2023/06/29 00:03:18;;;;;;;7.77;6.70;;;;;;;18.39;82.18;98236.81;4143591;28;20652;-81
2023/06/29 00:05:21;;;;;;;6.67;5.97;;;;;;;18.36;81.53;98242.38;4150882;28;20666;-81
2023/06/29 00:07:25;;;;;;;7.87;6.60;;;;;;;18.33;82.02;98240.03;4157537;28;20652;-81
2023/06/29 00:09:28;;;;;;;7.07;6.20;;;;;;;18.32;81.69;98238.41;4137671;28;20674;-81
2023/06/29 00:11:33;;;;;;;6.87;6.20;;;;;;;18.30;81.62;98243.84;4144466;28;20634;-81
2023/06/29 00:13:37;;;;;;;7.23;6.10;;;;;;;18.29;81.72;98242.16;4149580;28;20626;-81
2023/06/29 00:15:40;;;;;;;8.00;6.43;;;;;;;18.26;81.55;98228.44;4149791;28;20643;-81
2023/06/29 00:17:47;;;;;;;6.63;6.00;;;;;;;18.18;81.33;98233.63;4156500;28;20675;-81
2023/06/29 00:19:50;;;;;;;7.70;6.50;;;;;;;18.11;81.79;98232.50;4131664;28;20644;-82
2023/06/29 00:21:54;;;;;;;7.57;6.77;;;;;;;18.06;82.53;98232.97;4120764;28;20660;-82
2023/06/29 00:23:57;;;;;;;7.20;6.50;;;;;;;18.05;81.66;98230.47;4152159;28;20659;-82
2023/06/29 00:26:02;;;;;;;7.93;6.30;;;;;;;18.01;82.20;98231.72;4153147;28;21283;-82
2023/06/29 00:28:05;;;;;;;7.20;6.50;;;;;;;17.96;82.18;98231.34;4150749;28;20657;-82
2023/06/29 00:30:19;;;;;;;6.20;5.60;;;;;;;17.90;82.70;98231.09;4147474;28;20645;-82
2023/06/29 00:32:22;;;;;;;7.70;6.23;;;;;;;17.84;83.13;98216.66;4150106;28;20646;-82
2023/06/29 00:34:27;;;;;;;6.70;6.10;;;;;;;17.83;83.19;98220.31;4151448;28;20641;-83
2023/06/29 00:36:30;;;;;;;6.37;5.77;;;;;;;17.83;83.40;98219.47;4150158;28;21074;-82
2023/06/29 00:38:35;;;;;;;6.90;6.30;;;;;;;17.84;82.49;98216.66;4157346;28;20806;-82
2023/06/29 00:40:39;;;;;;;7.83;6.27;;;;;;;17.84;82.58;98216.66;4152785;28;20731;-83
2023/06/29 00:42:48;;;;;;;7.27;6.53;;;;;;;17.83;82.87;98219.47;4156911;28;20643;-82
2023/06/29 00:44:51;;;;;;;6.40;5.90;;;;;;;17.81;82.99;98216.97;4140828;28;20624;-82
2023/06/29 00:46:55;;;;;;;6.57;5.97;;;;;;;17.77;82.38;98215.63;4154935;28;20668;-83
2023/06/29 00:48:59;;;;;;;6.40;5.90;;;;;;;17.74;82.70;98215.06;4134652;28;20745;-82
2023/06/29 00:51:04;;;;;;;7.20;6.30;;;;;;;17.71;83.32;98205.63;4151946;28;20628;-82
2023/06/29 00:53:08;;;;;;;7.30;6.30;;;;;;;17.68;83.73;98205.94;4154551;28;20698;-83
2023/06/29 00:55:12;;;;;;;6.97;6.27;;;;;;;17.66;83.28;98209.69;4148879;28;20622;-82
2023/06/29 00:57:18;;;;;;;6.80;6.20;;;;;;;17.64;83.57;98207.19;4137942;28;21187;-82
2023/06/29 00:59:24;;;;;;;6.97;6.27;;;;;;;17.68;83.86;98211.22;4145743;28;20639;-82
2023/06/29 01:01:28;;;;;;;6.73;6.03;;;;;;;17.71;83.36;98210.06;4149251;28;20652;-83
2023/06/29 01:03:33;;;;;;;7.80;6.87;;;;;;;17.69;83.19;98202.28;4137904;28;20650;-82
2023/06/29 01:05:38;;;;;;;6.73;6.10;;;;;;;17.65;83.55;98208.84;4155226;28;20668;-82
2023/06/29 01:07:47;;;;;;;7.00;6.30;;;;;;;17.64;83.88;98215.09;4149666;28;20637;-82
2023/06/29 01:09:50;;;;;;;7.13;6.43;;;;;;;17.63;83.18;98212.59;4153459;28;20978;-83
2023/06/29 01:11:54;;;;;;;7.27;6.20;;;;;;;17.62;83.91;98205.66;4148271;28;20690;-83
2023/06/29 01:13:57;;;;;;;6.90;6.13;;;;;;;17.61;83.69;98204.84;4148524;28;21053;-83
2023/06/29 01:16:00;;;;;;;6.70;6.10;;;;;;;17.59;82.94;98203.31;4157046;28;21265;-82
2023/06/29 01:18:05;;;;;;;8.90;6.20;;;;;;;17.54;83.40;98201.09;4154318;28;20644;-82
2023/06/29 01:20:11;;;;;;;7.30;6.57;;;;;;;17.51;84.30;98198.78;4151882;28;20637;-82
2023/06/29 01:22:18;;;;;;;7.30;5.90;;;;;;;17.50;84.09;98196.28;4147903;28;20648;-82
2023/06/29 01:24:25;;;;;;;6.90;6.20;;;;;;;17.48;84.57;98196.44;4138842;28;20682;-83
2023/06/29 01:26:30;;;;;;;7.23;6.27;;;;;;;17.46;84.29;98194.91;4163955;28;21088;-82
2023/06/29 01:28:38;;;;;;;7.50;6.80;;;;;;;17.46;84.46;98188.81;4153463;28;20643;-82
2023/06/29 01:30:49;;;;;;;6.73;6.10;;;;;;;17.42;83.17;98198.78;4148812;28;20695;-82
2023/06/29 01:32:55;;;;;;;7.17;6.47;;;;;;;17.43;84.41;98194.38;4143057;28;20671;-82
2023/06/29 01:34:58;;;;;;;6.60;6.00;;;;;;;17.43;84.90;98189.09;4155512;28;20639;-82
2023/06/29 01:37:08;;;;;;;7.00;6.30;;;;;;;17.44;83.39;98194.22;4154195;28;20634;-82
2023/06/29 01:39:15;;;;;;;8.00;6.47;;;;;;;17.42;83.52;98201.44;4152040;28;20661;-82
2023/06/29 01:41:18;;;;;;;7.73;6.40;;;;;;;17.40;83.64;98197.28;4133946;28;20641;-82
2023/06/29 01:43:24;;;;;;;6.87;6.20;;;;;;;17.38;84.24;98191.31;4154212;28;20635;-82
2023/06/29 01:45:28;;;;;;;7.03;6.00;;;;;;;17.36;83.14;98185.38;4144018;28;20628;-81
2023/06/29 01:47:31;;;;;;;7.83;7.13;;;;;;;17.30;84.70;98199.13;4164796;28;20677;-82
2023/06/29 01:49:35;;;;;;;7.33;6.60;;;;;;;17.24;83.78;98191.78;4168178;28;20632;-82
2023/06/29 01:51:38;;;;;;;7.43;6.67;;;;;;;17.19;84.90;98196.63;4136623;28;21049;-82
2023/06/29 01:53:41;;;;;;;7.90;6.43;;;;;;;17.17;84.90;98190.66;4146184;28;21018;-82
2023/06/29 01:55:44;;;;;;;7.27;6.10;;;;;;;17.15;84.25;98187.34;4135694;28;20628;-82
2023/06/29 01:57:48;;;;;;;6.53;5.93;;;;;;;17.16;84.23;98195.09;4150132;28;20731;-82
2023/06/29 01:59:52;;;;;;;7.10;6.50;;;;;;;17.14;85.36;98194.41;4152219;28;20661;-82
2023/06/29 02:01:55;;;;;;;6.60;5.90;;;;;;;17.13;85.39;98197.19;4152678;28;20657;-82
2023/06/29 02:03:59;;;;;;;7.53;6.57;;;;;;;17.10;85.65;98197.47;4145054;28;21287;-83
2023/06/29 02:06:02;;;;;;;7.00;6.40;;;;;;;17.06;84.66;98193.44;4152292;28;20771;-82
2023/06/29 02:08:06;;;;;;;7.47;6.77;;;;;;;17.04;85.72;98193.59;4150849;28;20650;-82
2023/06/29 02:10:09;;;;;;;7.00;6.40;;;;;;;17.02;86.41;98189.47;4150683;28;20643;-82
2023/06/29 02:12:12;;;;;;;7.53;6.80;;;;;;;16.99;85.80;98192.38;4148432;28;21103;-82
2023/06/29 02:14:17;;;;;;;7.17;6.47;;;;;;;16.97;86.59;98191.66;4147506;28;21049;-83
2023/06/29 02:16:21;;;;;;;7.60;6.90;;;;;;;16.94;85.18;98180.59;4155813;28;20707;-82
2023/06/29 02:18:25;;;;;;;7.30;6.60;;;;;;;16.92;85.64;98186.00;4154690;28;20642;-81
2023/06/29 02:20:28;;;;;;;7.40;6.80;;;;;;;16.91;85.38;98181.69;4140273;28;20637;-82
2023/06/29 02:22:31;;;;;;;8.33;7.53;;;;;;;16.89;85.05;98183.66;4155587;28;20705;-83
2023/06/29 02:24:34;;;;;;;7.77;6.97;;;;;;;16.89;84.75;98178.38;4151132;28;20722;-82
2023/06/29 02:26:37;;;;;;;7.67;6.97;;;;;;;16.87;85.47;98180.31;4150779;28;20701;-82
2023/06/29 02:28:40;;;;;;;7.37;6.67;;;;;;;16.86;85.20;98181.28;4152053;28;20636;-82
2023/06/29 02:30:43;;;;;;;6.90;6.20;;;;;;;16.86;85.51;98172.56;4150613;28;20681;-82
2023/06/29 02:32:48;;;;;;;7.50;6.60;;;;;;;16.87;84.70;98179.47;4152923;28;20615;-82
2023/06/29 02:34:51;;;;;;;7.63;6.43;;;;;;;16.83;85.06;98178.94;4157341;28;20691;-82
2023/06/29 02:36:55;;;;;;;7.57;6.87;;;;;;;16.81;84.88;98175.63;4149632;28;21227;-82
2023/06/29 02:39:00;;;;;;;7.00;6.30;;;;;;;16.79;86.55;98174.09;4151407;28;20641;-82
2023/06/29 02:41:03;;;;;;;8.43;7.60;;;;;;;16.77;85.50;98176.88;4139392;28;20644;-82
2023/06/29 02:43:07;;;;;;;8.33;7.53;;;;;;;16.75;86.44;98170.91;4137910;28;20671;-82
2023/06/29 02:45:10;;;;;;;6.90;6.30;;;;;;;16.76;85.59;98169.09;4149785;28;21005;-83
2023/06/29 02:47:14;;;;;;;9.43;7.20;;;;;;;16.74;85.96;98171.06;4132843;28;20699;-82
2023/06/29 02:49:19;;;;;;;7.20;6.50;;;;;;;16.70;85.45;98170.50;4153070;28;20764;-82
2023/06/29 02:51:23;;;;;;;6.63;6.03;;;;;;;16.65;84.85;98164.00;4137844;28;20635;-82
2023/06/29 02:53:32;;;;;;;8.03;7.33;;;;;;;16.59;84.72;98175.91;4146021;28;20649;-82
2023/06/29 02:55:35;;;;;;;7.13;6.53;;;;;;;16.53;85.62;98165.94;4153229;28;20682;-82
2023/06/29 02:57:38;;;;;;;7.40;6.63;;;;;;;16.50;86.58;98175.09;4152582;28;20657;-82
2023/06/29 02:59:42;;;;;;;7.20;6.50;;;;;;;16.48;87.22;98162.06;4154982;28;20637;-82
2023/06/29 03:01:45;;;;;;;7.70;7.00;;;;;;;16.46;87.02;98163.16;4153700;28;20646;-82
2023/06/29 03:03:48;;;;;;;7.67;6.97;;;;;;;16.40;86.15;98159.28;4140208;28;20664;-82
2023/06/29 03:05:53;;;;;;;7.07;6.47;;;;;;;16.36;86.23;98157.09;4141369;28;20727;-82
2023/06/29 03:07:56;;;;;;;8.03;7.03;;;;;;;16.30;86.34;98160.28;4153912;28;20678;-82
2023/06/29 03:09:59;;;;;;;8.50;6.93;;;;;;;16.26;86.67;98161.50;4134528;28;20635;-82
2023/06/29 03:12:02;;;;;;;7.47;6.77;;;;;;;16.25;87.99;98165.09;4153075;28;20697;-82
2023/06/29 03:14:05;;;;;;;7.77;6.90;;;;;;;16.26;85.89;98153.59;4153061;28;20620;-82
2023/06/29 03:16:09;;;;;;;8.10;7.27;;;;;;;16.26;86.16;98154.44;4153334;28;20678;-82
2023/06/29 03:18:13;;;;;;;7.43;6.73;;;;;;;16.27;86.58;98148.19;4152058;28;21190;-82
2023/06/29 03:20:16;;;;;;;7.80;7.03;;;;;;;16.29;86.06;98155.97;4142405;28;20663;-82
2023/06/29 03:22:21;;;;;;;7.77;6.53;;;;;;;16.30;86.09;98153.19;4140555;28;20641;-82
2023/06/29 03:24:24;;;;;;;11.17;6.87;;;;;;;16.30;86.84;98150.56;4156581;28;20740;-82
2023/06/29 03:26:27;;;;;;;10.07;7.43;;;;;;;16.32;86.41;98160.94;4154496;28;20732;-82
2023/06/29 03:28:30;;;;;;;7.10;6.40;;;;;;;16.31;88.60;98157.50;4147743;28;20736;-82
2023/06/29 03:30:33;;;;;;;7.53;6.83;;;;;;;16.32;89.09;98166.22;4153775;28;20685;-82
2023/06/29 03:32:36;;;;;;;8.10;7.30;;;;;;;16.31;87.49;98156.66;4155280;28;20986;-82
2023/06/29 03:34:39;;;;;;;7.60;6.80;;;;;;;16.31;88.87;98164.53;4157350;28;20653;-82
2023/06/29 03:36:43;;;;;;;8.13;7.30;;;;;;;16.28;88.08;98163.03;4149963;28;20672;-82
2023/06/29 03:38:47;;;;;;;7.67;6.93;;;;;;;16.28;88.22;98167.44;4161717;28;21212;-82
2023/06/29 03:40:50;;;;;;;8.00;7.30;;;;;;;16.27;88.56;98163.19;4153170;28;20739;-82
2023/06/29 03:42:53;;;;;;;8.30;7.50;;;;;;;16.28;87.59;98159.56;4140732;28;20767;-82
2023/06/29 03:44:56;;;;;;;8.63;7.80;;;;;;;16.26;88.72;98159.69;4158804;28;21237;-84
2023/06/29 03:47:00;;;;;;;7.87;7.17;;;;;;;16.25;87.55;98154.56;4157485;28;20642;-85
2023/06/29 03:49:03;;;;;;;8.20;7.50;;;;;;;16.20;86.99;98159.38;4150638;28;20669;-84
2023/06/29 03:51:06;;;;;;;7.67;7.03;;;;;;;16.15;85.99;98161.59;4143134;28;20635;-84
2023/06/29 03:53:09;;;;;;;8.43;7.53;;;;;;;16.11;86.49;98157.56;4153781;28;21190;-85
2023/06/29 03:55:13;;;;;;;8.40;7.60;;;;;;;16.10;87.27;98163.78;4154118;28;20701;-85
2023/06/29 03:57:16;;;;;;;8.17;7.27;;;;;;;16.11;88.12;98162.84;4151250;28;20739;-84
2023/06/29 03:59:20;;;;;;;8.67;7.70;;;;;;;16.16;87.33;98163.25;4133252;28;21222;-84
2023/06/29 04:01:23;;;;;;;8.50;7.40;;;;;;;16.19;88.28;98169.09;4151058;28;20653;-84
2023/06/29 04:03:26;;;;;;;8.33;7.53;;;;;;;16.25;89.30;98165.09;4140900;28;21065;-84
2023/06/29 04:05:29;;;;;;;9.07;8.20;;;;;;;16.31;87.74;98164.53;4150478;28;20657;-85
2023/06/29 04:07:32;;;;;;;9.07;8.17;;;;;;;16.37;88.37;98166.63;4156578;28;20667;-85
2023/06/29 04:09:35;;;;;;;9.53;8.40;;;;;;;16.42;87.55;98157.34;4155103;28;20639;-85
2023/06/29 04:11:40;;;;;;;10.20;8.53;;;;;;;16.46;87.05;98163.97;4137768;28;20630;-85
2023/06/29 04:13:43;;;;;;;8.23;7.43;;;;;;;16.47;87.55;98163.03;4157350;28;20634;-85
2023/06/29 04:15:46;;;;;;;8.57;7.67;;;;;;;16.48;87.48;98167.34;4158633;28;20629;-85
2023/06/29 04:17:49;;;;;;;8.70;7.90;;;;;;;16.52;88.77;98166.06;4155449;28;20737;-85
2023/06/29 04:19:53;;;;;;;9.00;8.10;;;;;;;16.58;87.49;98168.13;4157471;28;20694;-85
2023/06/29 04:21:56;;;;;;;9.00;8.10;;;;;;;16.64;86.50;98162.31;4153471;28;21208;-85
2023/06/29 04:23:59;;;;;;;9.33;8.30;;;;;;;16.69;85.82;98162.75;4152312;28;20749;-85
2023/06/29 04:26:03;;;;;;;10.00;7.73;;;;;;;16.75;85.40;98163.00;4153548;28;20619;-85
2023/06/29 04:28:08;;;;;;;8.67;7.63;;;;;;;16.79;86.02;98167.00;4159016;28;20649;-85
2023/06/29 04:30:12;;;;;;;8.53;7.67;;;;;;;16.75;84.99;98155.09;4155241;28;20642;-85
2023/06/29 04:32:15;;;;;;;9.43;7.60;;;;;;;16.78;84.61;98160.09;4157924;28;20712;-85
2023/06/29 04:34:19;;;;;;;8.80;7.73;;;;;;;16.84;84.20;98158.69;4152472;28;20714;-85
2023/06/29 04:36:22;;;;;;;9.23;7.37;;;;;;;16.88;86.39;98157.44;4155045;28;20633;-85
2023/06/29 04:38:27;;;;;;;8.13;7.33;;;;;;;16.88;85.95;98155.63;4152153;28;21192;-85
2023/06/29 04:40:30;;;;;;;8.53;7.67;;;;;;;16.90;85.57;98152.84;4151042;28;20652;-85
2023/06/29 04:42:33;;;;;;;8.33;7.53;;;;;;;16.93;85.68;98160.47;4143850;28;20724;-85
2023/06/29 04:44:38;;;;;;;9.20;8.30;;;;;;;16.98;87.19;98155.63;4149565;28;20659;-85
2023/06/29 04:46:41;;;;;;;9.47;8.57;;;;;;;17.06;86.66;98161.81;4153859;28;20627;-85
2023/06/29 04:48:46;;;;;;;8.70;7.90;;;;;;;17.12;86.51;98159.47;4153559;28;20639;-85
2023/06/29 04:50:49;;;;;;;8.80;7.90;;;;;;;17.19;86.20;98152.63;4153737;28;20636;-85
2023/06/29 04:52:53;;;;;;;8.73;7.83;;;;;;;17.26;85.66;98158.19;4167507;28;20637;-85
2023/06/29 04:54:56;;;;;;;9.43;7.30;;;;;;;17.30;85.09;98157.75;4150844;28;21005;-83
2023/06/29 04:56:59;;;;;;;7.80;7.10;;;;;;;17.36;85.69;98161.63;4149942;28;20645;-85
2023/06/29 04:59:02;;;;;;;8.53;7.73;;;;;;;17.41;84.14;98162.00;4151184;28;20638;-85
2023/06/29 05:01:07;;;;;;;8.10;7.40;;;;;;;17.46;85.15;98160.63;4146259;28;20650;-85
2023/06/29 05:03:10;;;;;;;8.03;7.10;;;;;;;17.52;84.60;98162.69;4158387;28;20631;-85
2023/06/29 05:05:14;;;;;;;11.00;8.43;;;;;;;17.59;85.25;98169.00;4154348;28;20693;-85
2023/06/29 05:07:17;;;;;;;10.87;8.20;;;;;;;17.65;85.56;98171.91;4154050;28;21042;-85
2023/06/29 05:09:20;;;;;;;8.97;8.07;;;;;;;17.70;85.26;98160.94;4153850;28;20691;-85
2023/06/29 05:11:23;;;;;;;8.73;7.77;;;;;;;17.76;85.07;98165.63;4154722;28;20662;-85
2023/06/29 05:13:26;;;;;;;8.90;7.50;;;;;;;17.82;85.47;98160.56;4149930;28;21120;-85
2023/06/29 05:15:30;;;;;;;8.67;7.77;;;;;;;17.90;83.88;98157.19;4145195;28;20620;-85
2023/06/29 05:17:34;;;;;;;7.80;7.10;;;;;;;17.97;84.19;98165.19;4155803;28;20628;-85
2023/06/29 05:19:37;;;;;;;8.27;7.57;;;;;;;18.05;83.63;98160.00;4151977;28;20636;-85
2023/06/29 05:21:41;;;;;;;8.63;7.83;;;;;;;18.13;83.61;98159.28;4156329;28;20641;-84
2023/06/29 05:23:44;;;;;;;7.50;6.80;;;;;;;18.24;83.67;98161.75;4151655;28;20672;-84
2023/06/29 05:25:47;;;;;;;7.60;6.80;;;;;;;18.33;82.65;98160.81;4150454;28;21130;-84
2023/06/29 05:27:50;;;;;;;8.10;6.87;;;;;;;18.41;82.36;98167.84;4150262;28;20641;-84
2023/06/29 05:29:53;;;;;;;7.73;6.93;;;;;;;18.53;82.13;98163.97;4153311;28;20677;-84
2023/06/29 05:31:56;;;;;;;8.50;7.70;;;;;;;18.63;82.13;98169.22;4140046;28;20639;-85
2023/06/29 05:34:01;;;;;;;7.47;6.77;;;;;;;18.75;81.65;98168.81;4156022;28;20645;-86
2023/06/29 05:36:04;;;;;;;9.30;8.40;;;;;;;18.94;82.01;98179.19;4160328;28;20625;-87
2023/06/29 05:38:08;;;;;;;7.93;7.23;;;;;;;19.11;82.48;98171.25;4137237;28;20625;-86
2023/06/29 05:40:12;;;;;;;9.20;8.30;;;;;;;19.35;81.67;98173.22;4145680;28;20644;-88
2023/06/29 05:42:15;;;;;;;7.60;6.40;;;;;;;19.61;79.76;98173.03;4140360;28;20719;-86
2023/06/29 05:44:18;;;;;;;8.07;6.43;;;;;;;19.92;78.45;98179.47;4145817;28;20656;-86
2023/06/29 05:46:23;;;;;;;7.50;6.80;;;;;;;20.25;78.51;98183.88;4149332;28;20642;-86
2023/06/29 05:48:26;;;;;;;6.10;5.60;;;;;;;20.62;77.55;98179.81;4146496;28;20643;-87
2023/06/29 05:50:30;;;;;;;6.70;6.00;;;;;;;20.98;74.48;98176.72;4160930;28;21105;-86
2023/06/29 05:52:34;;;;;;;6.70;6.00;;;;;;;21.29;73.36;98184.63;4152019;28;20875;-86
2023/06/29 05:54:38;;;;;;;6.30;5.70;;;;;;;21.58;71.76;98176.97;4144719;28;20645;-89
2023/06/29 05:56:41;;;;;;;9.40;5.60;;;;;;;21.83;70.54;98163.44;4130812;28;20654;-83
2023/06/29 05:58:45;;;;;;;5.67;5.17;;;;;;;22.08;69.97;98175.59;4146589;28;21301;-83
2023/06/29 06:00:49;;;;;;;6.33;5.73;;;;;;;22.36;70.49;98172.31;4145390;28;20637;-83
2023/06/29 06:02:53;;;;;;;9.73;6.67;;;;;;;22.68;71.26;98176.59;4145024;28;20638;-83
2023/06/29 06:04:56;;;;;;;9.47;5.80;;;;;;;22.99;70.36;98179.03;4147052;28;20671;-84
2023/06/29 06:07:01;;;;;;;6.73;6.13;;;;;;;23.29;70.88;98186.09;4149819;28;20668;-83
2023/06/29 06:09:04;;;;;;;6.00;5.50;;;;;;;23.59;68.71;98183.28;4156797;28;20630;-81
2023/06/29 06:11:07;;;;;;;8.13;5.40;;;;;;;23.85;67.93;98186.34;4131887;28;20669;-81
2023/06/29 06:13:10;;;;;;;4.53;4.13;;;;;;;24.08;65.65;98187.03;4155714;28;20753;-81
2023/06/29 06:15:14;;;;;;;7.10;5.17;;;;;;;24.33;66.32;98183.91;4152630;28;20720;-81
2023/06/29 06:17:17;;;;;;;5.30;4.80;;;;;;;24.53;65.99;98187.63;4151340;28;20686;-82
2023/06/29 06:19:20;;;;;;;5.10;4.70;;;;;;;24.78;65.39;98187.06;4140012;28;20668;-82
2023/06/29 06:21:23;;;;;;;5.07;4.43;;;;;;;25.02;64.44;98189.38;4151691;28;20636;-81
2023/06/29 06:23:28;;;;;;;5.50;4.47;;;;;;;25.29;64.65;98200.09;4158428;28;20663;-82
2023/06/29 06:25:35;;;;;;;5.53;4.83;;;;;;;25.55;62.85;98192.28;4151814;28;20755;-82
2023/06/29 06:27:38;;;;;;;5.53;4.40;;;;;;;25.75;62.95;98189.56;4157588;28;20639;-82
2023/06/29 06:29:41;;;;;;;6.10;5.60;;;;;;;25.96;62.50;98196.69;4152068;28;20651;-81
2023/06/29 06:31:44;;;;;;;6.47;4.97;;;;;;;26.04;61.11;98199.19;4160870;28;20650;-82
2023/06/29 06:33:47;;;;;;;5.20;4.70;;;;;;;26.00;60.88;98189.94;4140236;28;20642;-82
2023/06/29 06:35:50;;;;;;;7.60;5.37;;;;;;;26.05;61.32;98188.28;4156983;28;20659;-82
2023/06/29 06:37:54;;;;;;;5.37;4.50;;;;;;;26.18;60.83;98191.84;4153101;28;21383;-82
2023/06/29 06:39:58;;;;;;;5.57;4.53;;;;;;;26.31;60.61;98189.28;4154022;28;21200;-82
2023/06/29 06:42:01;;;;;;;4.50;4.10;;;;;;;26.39;61.02;98189.09;4144061;28;20649;-85
2023/06/29 06:44:04;;;;;;;7.23;6.53;;;;;;;26.56;60.92;98180.47;4149951;28;20716;-85
2023/06/29 06:46:08;;;;;;;5.40;4.90;;;;;;;26.73;59.55;98180.94;4147942;28;20753;-85
2023/06/29 06:48:11;;;;;;;5.70;3.87;;;;;;;26.87;58.42;98185.31;4151125;28;20774;-85
2023/06/29 06:50:14;;;;;;;8.63;4.77;;;;;;;26.91;59.14;98173.19;4123204;28;21051;-86
2023/06/29 06:52:17;;;;;;;5.83;4.43;;;;;;;27.02;58.63;98175.25;4127776;28;21458;-86
2023/06/29 06:54:20;;;;;;;5.20;4.67;;;;;;;27.05;57.68;98173.81;4135890;28;21108;-86
2023/06/29 06:56:26;;;;;;;5.40;4.77;;;;;;;27.17;57.92;98166.00;4134545;28;21059;-86
2023/06/29 06:58:29;;;;;;;4.50;3.70;;;;;;;27.30;57.89;98172.16;4133004;28;20969;-85
2023/06/29 07:00:32;;;;;;;4.43;4.00;;;;;;;27.51;58.17;98158.56;4133418;28;20635;-86
2023/06/29 07:02:35;;;;;;;4.40;4.00;;;;;;;27.63;57.12;98162.25;4154382;28;20629;-86
2023/06/29 07:04:39;;;;;;;6.60;4.60;;;;;;;27.83;58.14;98163.03;4152336;28;21189;-86
2023/06/29 07:06:42;;;;;;;4.17;3.67;;;;;;;27.96;56.79;98153.09;4141181;28;20640;-86
2023/06/29 07:08:45;;;;;;;4.87;4.03;;;;;;;28.01;55.45;98147.94;4168883;28;20648;-86
2023/06/29 07:10:51;;;;;;;5.73;4.07;;;;;;;28.22;56.29;98153.88;4130766;28;20630;-86
2023/06/29 07:12:55;;;;;;;4.03;3.67;;;;;;;28.49;55.49;98155.34;4135433;28;21228;-85
2023/06/29 07:14:59;;;;;;;4.53;3.73;;;;;;;28.48;55.94;98150.19;4136386;28;20691;-84
2023/06/29 07:17:02;;;;;;;4.60;4.20;;;;;;;28.37;55.22;98138.31;4138821;28;21185;-85
2023/06/29 07:19:09;;;;;;;3.87;3.50;;;;;;;28.26;55.30;98138.97;4146901;28;20686;-88
2023/06/29 07:21:15;;;;;;;5.00;3.70;;;;;;;28.37;55.39;98130.25;4147763;28;20653;-85
2023/06/29 07:23:19;;;;;;;4.40;4.00;;;;;;;28.59;55.50;98137.75;4152326;28;20634;-85
2023/06/29 07:25:25;;;;;;;4.00;3.63;;;;;;;28.76;55.99;98136.25;4164722;28;20657;-84
2023/06/29 07:27:28;;;;;;;4.30;3.90;;;;;;;28.95;54.09;98129.06;4144078;28;21043;-85
2023/06/29 07:29:34;;;;;;;4.27;3.40;;;;;;;29.05;53.95;98122.16;4138327;28;20645;-85
2023/06/29 07:31:38;;;;;;;10.30;8.80;;;;;;;29.10;55.34;98130.38;4143376;28;20642;-85
2023/06/29 07:33:42;;;;;;;4.20;3.73;;;;;;;29.23;55.22;98117.69;4131911;28;20667;-85
2023/06/29 07:35:45;;;;;;;5.20;3.50;;;;;;;29.38;53.81;98125.41;4145604;28;20856;-85
2023/06/29 07:37:49;;;;;;;3.40;3.10;;;;;;;29.50;52.64;98114.53;4146732;28;20683;-85
2023/06/29 07:39:52;;;;;;;6.13;3.40;;;;;;;29.63;53.20;98122.44;4153829;28;20628;-85
2023/06/29 07:41:55;;;;;;;3.93;3.53;;;;;;;29.71;53.50;98115.94;4141146;28;21214;-85
2023/06/29 07:43:59;;;;;;;3.10;2.90;;;;;;;29.84;52.58;98107.78;4147364;28;20725;-85
2023/06/29 07:46:04;;;;;;;3.43;3.13;;;;;;;29.95;52.62;98113.25;4147694;28;21225;-85
2023/06/29 07:48:10;;;;;;;3.90;3.30;;;;;;;29.88;51.47;98107.09;4160363;28;20637;-85
2023/06/29 07:50:14;;;;;;;4.70;3.20;;;;;;;29.94;53.11;98114.28;4158660;28;20658;-85
2023/06/29 07:52:17;;;;;;;3.47;3.17;;;;;;;30.11;51.45;98110.72;4155885;28;20688;-85
2023/06/29 07:54:20;;;;;;;3.83;3.53;;;;;;;30.17;51.93;98109.84;4151543;28;21067;-85
2023/06/29 07:56:23;;;;;;;3.00;2.70;;;;;;;30.35;51.43;98109.03;4151414;28;20701;-85
2023/06/29 07:58:27;;;;;;;4.53;3.67;;;;;;;30.48;51.39;98106.97;4168588;28;20662;-85
2023/06/29 08:00:33;;;;;;;4.83;3.30;;;;;;;30.48;51.22;98098.88;4152049;28;20641;-85
2023/06/29 08:02:38;;;;;;;3.20;2.80;;;;;;;30.52;50.17;98089.28;4148983;28;20724;-85
2023/06/29 08:04:41;;;;;;;3.60;2.60;;;;;;;30.63;49.68;98092.03;4151526;28;20680;-84
2023/06/29 08:06:47;;;;;;;2.60;2.40;;;;;;;30.72;50.13;98089.84;4148615;28;20680;-82
2023/06/29 08:08:54;;;;;;;3.30;3.00;;;;;;;30.88;51.11;98094.56;4153789;28;20641;-83
2023/06/29 08:10:59;;;;;;;4.37;3.10;;;;;;;31.01;49.64;98087.91;4149928;28;21034;-84
2023/06/29 08:13:02;;;;;;;3.23;2.93;;;;;;;30.97;50.77;98089.44;4132786;28;20886;-84
2023/06/29 08:15:08;;;;;;;3.70;2.70;;;;;;;30.93;50.04;98082.88;4148829;28;21214;-83
2023/06/29 08:17:11;;;;;;;3.87;2.73;;;;;;;30.71;50.66;98088.19;4148153;28;20679;-84
2023/06/29 08:19:15;;;;;;;3.77;3.47;;;;;;;30.62;51.42;98076.91;4152998;28;20645;-83
2023/06/29 08:21:21;;;;;;;3.70;3.23;;;;;;;30.66;50.79;98070.00;4157483;28;20647;-83
2023/06/29 08:23:24;;;;;;;3.03;2.73;;;;;;;30.81;51.38;98077.63;4152431;28;20673;-83
2023/06/29 08:25:28;;;;;;;3.00;2.70;;;;;;;30.95;49.59;98064.56;4150946;28;20776;-84
2023/06/29 08:27:31;;;;;;;3.77;2.33;;;;;;;31.00;50.04;98070.09;4155127;28;20739;-83
2023/06/29 08:29:34;;;;;;;3.67;2.60;;;;;;;31.09;50.48;98076.81;4153415;28;20662;-83
2023/06/29 08:31:37;;;;;;;3.17;2.87;;;;;;;31.37;49.10;98074.22;4151055;28;20696;-83
2023/06/29 08:33:40;;;;;;;2.87;2.60;;;;;;;31.55;48.26;98071.41;4156302;28;20735;-83
2023/06/29 08:35:45;;;;;;;3.93;2.40;;;;;;;31.63;48.03;98068.34;4138557;28;21099;-83
2023/06/29 08:37:48;;;;;;;2.83;2.50;;;;;;;31.76;48.72;98074.31;4153562;28;20625;-84
2023/06/29 08:39:51;;;;;;;2.83;2.60;;;;;;;31.55;49.36;98069.53;4156180;28;20767;-83
2023/06/29 08:41:55;;;;;;;3.13;2.83;;;;;;;31.36;47.80;98064.47;4154700;28;21179;-83
2023/06/29 08:44:04;;;;;;;2.70;2.50;;;;;;;31.54;48.89;98065.22;4143629;28;20645;-83
2023/06/29 08:46:07;;;;;;;3.70;3.00;;;;;;;31.29;49.50;98065.63;4142731;28;20654;-83
2023/06/29 08:48:13;;;;;;;3.47;2.57;;;;;;;30.88;48.01;98051.44;4154666;28;20669;-84
2023/06/29 08:50:17;;;;;;;3.10;2.80;;;;;;;30.51;49.86;98050.75;4157381;28;20641;-84
2023/06/29 08:52:25;;;;;;;3.70;2.53;;;;;;;30.36;49.46;98046.84;4154078;28;20757;-83
2023/06/29 08:54:29;;;;;;;3.70;2.63;;;;;;;30.44;49.66;98046.50;4160408;28;20657;-83
2023/06/29 08:56:32;;;;;;;2.90;2.47;;;;;;;30.63;50.83;98046.22;4152623;28;20672;-83
2023/06/29 08:58:36;;;;;;;2.47;2.27;;;;;;;30.89;48.08;98050.41;4153297;28;20627;-83
2023/06/29 09:00:40;;;;;;;2.80;2.40;;;;;;;31.01;48.77;98047.47;4138081;28;20653;-83
2023/06/29 09:02:45;;;;;;;3.43;2.40;;;;;;;30.90;48.60;98050.16;4142266;28;20637;-83
2023/06/29 09:04:49;;;;;;;2.80;2.40;;;;;;;30.78;48.31;98043.91;4142163;28;22029;-83
2023/06/29 09:06:53;;;;;;;2.60;2.40;;;;;;;30.72;48.63;98034.06;4150432;28;21091;-83
2023/06/29 09:08:58;;;;;;;2.73;2.43;;;;;;;30.58;49.56;98034.47;4166587;28;20661;-83
2023/06/29 09:11:02;;;;;;;2.60;2.10;;;;;;;30.63;48.92;98037.31;4154321;28;21444;-83
2023/06/29 09:13:06;;;;;;;2.57;2.20;;;;;;;30.95;49.74;98037.59;4149462;28;20630;-83
2023/06/29 09:15:10;;;;;;;3.00;2.27;;;;;;;31.33;49.70;98046.06;4150111;28;20662;-82
2023/06/29 09:17:15;;;;;;;3.20;2.73;;;;;;;31.71;50.07;98049.06;4153906;28;20637;-83
2023/06/29 09:19:18;;;;;;;3.00;2.37;;;;;;;31.85;46.93;98045.06;4152692;28;20642;-82
2023/06/29 09:21:23;;;;;;;3.63;2.63;;;;;;;31.78;47.81;98047.88;4151110;28;20665;-83
2023/06/29 09:23:28;;;;;;;3.17;2.77;;;;;;;31.67;48.06;98040.66;4131976;28;21368;-83
2023/06/29 09:25:34;;;;;;;3.23;2.53;;;;;;;31.51;47.66;98030.59;4139907;28;20639;-83
2023/06/29 09:27:37;;;;;;;2.83;2.50;;;;;;;31.44;47.33;98031.78;4158109;28;21096;-83
2023/06/29 09:29:40;;;;;;;2.50;2.30;;;;;;;31.45;48.12;98022.63;4154778;28;20641;-82
2023/06/29 09:31:54;;;;;;;3.80;2.50;;;;;;;31.41;47.20;98024.16;4156276;28;21009;-82
2023/06/29 09:33:57;;;;;;;3.27;2.30;;;;;;;31.34;47.75;98026.13;4154735;28;20640;-84
2023/06/29 09:36:06;;;;;;;3.80;2.57;;;;;;;31.17;46.35;98025.19;4130007;28;21121;-85
2023/06/29 09:38:11;;;;;;;4.00;2.80;;;;;;;31.09;49.02;98027.41;4117143;28;20630;-82
2023/06/29 09:40:14;;;;;;;2.90;2.60;;;;;;;30.97;49.44;98027.44;4140668;28;21252;-82
2023/06/29 09:42:19;;;;;;;3.70;2.60;;;;;;;31.12;48.93;98030.50;4140799;28;20648;-81
2023/06/29 09:44:24;;;;;;;2.90;2.40;;;;;;;31.12;48.81;98027.78;4133316;28;21318;-82